sensor_id;sensor_type;location;lat;lon;timestamp;pressure;altitude;pressure_sealevel;temperature;humidity
60832;BME280;46665;51.558;-0.448;2023-03-19T00:02:34;100445.19;;;8.04;100.00
60832;BME280;46665;51.558;-0.448;2023-03-19T00:05:18;100444.41;;;8.09;100.00
60832;BME280;46665;51.558;-0.448;2023-03-19T00:08:02;100446.56;;;8.12;100.00
60832;BME280;46665;51.558;-0.448;2023-03-19T00:10:46;100433.00;;;8.12;100.00
60832;BME280;46665;51.558;-0.448;2023-03-19T00:13:31;100445.50;;;8.18;100.00
60832;BME280;46665;51.558;-0.448;2023-03-19T00:16:15;100444.16;;;8.21;100.00
60832;BME280;46665;51.558;-0.448;2023-03-19T00:18:59;100441.44;;;8.21;100.00
60832;BME280;46665;51.558;-0.448;2023-03-19T00:21:43;100449.81;;;8.24;100.00
60832;BME280;46665;51.558;-0.448;2023-03-19T00:24:28;100450.63;;;8.20;100.00
60832;BME280;46665;51.558;-0.448;2023-03-19T00:27:13;100465.53;;;8.28;100.00
60832;BME280;46665;51.558;-0.448;2023-03-19T00:29:57;100465.53;;;8.28;100.00
60832;BME280;46665;51.558;-0.448;2023-03-19T00:32:41;100472.88;;;8.27;100.00
60832;BME280;46665;51.558;-0.448;2023-03-19T00:35:24;100471.50;;;8.30;100.00
60832;BME280;46665;51.558;-0.448;2023-03-19T00:38:08;100495.91;;;8.24;100.00
60832;BME280;46665;51.558;-0.448;2023-03-19T00:40:52;100485.59;;;8.21;100.00
60832;BME280;46665;51.558;-0.448;2023-03-19T00:43:36;100494.53;;;8.17;100.00
60832;BME280;46665;51.558;-0.448;2023-03-19T00:46:21;100502.66;;;8.07;100.00
60832;BME280;46665;51.558;-0.448;2023-03-19T00:49:06;100514.28;;;7.97;100.00
60832;BME280;46665;51.558;-0.448;2023-03-19T00:51:50;100521.00;;;7.84;100.00
60832;BME280;46665;51.558;-0.448;2023-03-19T00:54:34;100518.81;;;7.76;100.00
60832;BME280;46665;51.558;-0.448;2023-03-19T00:57:18;100520.16;;;7.68;100.00
60832;BME280;46665;51.558;-0.448;2023-03-19T01:00:02;100526.66;;;7.67;100.00
60832;BME280;46665;51.558;-0.448;2023-03-19T01:02:46;100518.22;;;7.58;100.00
60832;BME280;46665;51.558;-0.448;2023-03-19T01:05:31;100528.47;;;7.56;100.00
60832;BME280;46665;51.558;-0.448;2023-03-19T01:08:17;100538.25;;;7.57;100.00
60832;BME280;46665;51.558;-0.448;2023-03-19T01:11:10;100546.06;;;7.54;100.00
60832;BME280;46665;51.558;-0.448;2023-03-19T01:13:54;100551.19;;;7.45;100.00
60832;BME280;46665;51.558;-0.448;2023-03-19T01:16:38;100550.38;;;7.45;100.00
60832;BME280;46665;51.558;-0.448;2023-03-19T01:19:22;100547.09;;;7.43;100.00
60832;BME280;46665;51.558;-0.448;2023-03-19T01:22:07;100549.78;;;7.37;100.00
60832;BME280;46665;51.558;-0.448;2023-03-19T01:24:52;100553.53;;;7.31;100.00
60832;BME280;46665;51.558;-0.448;2023-03-19T01:27:35;100557.19;;;7.10;100.00
60832;BME280;46665;51.558;-0.448;2023-03-19T01:30:19;100578.22;;;7.03;100.00
60832;BME280;46665;51.558;-0.448;2023-03-19T01:33:04;100591.63;;;6.87;100.00
60832;BME280;46665;51.558;-0.448;2023-03-19T01:35:48;100583.72;;;6.81;100.00
60832;BME280;46665;51.558;-0.448;2023-03-19T01:38:32;100586.38;;;6.76;100.00
60832;BME280;46665;51.558;-0.448;2023-03-19T01:41:16;100595.53;;;6.69;100.00
60832;BME280;46665;51.558;-0.448;2023-03-19T01:44:00;100590.56;;;6.56;100.00
60832;BME280;46665;51.558;-0.448;2023-03-19T01:46:44;100584.19;;;6.45;100.00
60832;BME280;46665;51.558;-0.448;2023-03-19T01:49:28;100592.47;;;6.34;100.00
60832;BME280;46665;51.558;-0.448;2023-03-19T01:52:14;100590.47;;;6.24;100.00
60832;BME280;46665;51.558;-0.448;2023-03-19T01:55:00;100595.31;;;6.22;100.00
60832;BME280;46665;51.558;-0.448;2023-03-19T01:57:45;100600.09;;;6.15;100.00
60832;BME280;46665;51.558;-0.448;2023-03-19T02:00:29;100603.31;;;6.12;100.00
60832;BME280;46665;51.558;-0.448;2023-03-19T02:03:13;100600.84;;;6.10;100.00
60832;BME280;46665;51.558;-0.448;2023-03-19T02:05:58;100586.78;;;6.08;100.00
60832;BME280;46665;51.558;-0.448;2023-03-19T02:08:42;100589.78;;;6.12;100.00
60832;BME280;46665;51.558;-0.448;2023-03-19T02:11:26;100584.16;;;6.13;100.00
60832;BME280;46665;51.558;-0.448;2023-03-19T02:14:11;100592.50;;;6.12;100.00
60832;BME280;46665;51.558;-0.448;2023-03-19T02:16:55;100591.94;;;6.10;100.00
60832;BME280;46665;51.558;-0.448;2023-03-19T02:20:00;100593.00;;;6.08;100.00
60832;BME280;46665;51.558;-0.448;2023-03-19T02:28:30;100603.59;;;6.15;100.00
60832;BME280;46665;51.558;-0.448;2023-03-19T02:31:16;100596.28;;;6.11;100.00
60832;BME280;46665;51.558;-0.448;2023-03-19T02:37:04;100602.16;;;6.07;100.00
60832;BME280;46665;51.558;-0.448;2023-03-19T02:39:54;100597.59;;;6.08;100.00
60832;BME280;46665;51.558;-0.448;2023-03-19T02:42:40;100601.13;;;6.08;100.00
60832;BME280;46665;51.558;-0.448;2023-03-19T02:45:29;100600.03;;;6.10;100.00
60832;BME280;46665;51.558;-0.448;2023-03-19T02:48:14;100596.47;;;6.04;100.00
60832;BME280;46665;51.558;-0.448;2023-03-19T02:50:58;100614.63;;;6.08;100.00
60832;BME280;46665;51.558;-0.448;2023-03-19T02:53:43;100625.66;;;6.07;100.00
60832;BME280;46665;51.558;-0.448;2023-03-19T02:56:27;100624.84;;;6.06;100.00
60832;BME280;46665;51.558;-0.448;2023-03-19T02:59:11;100612.97;;;6.07;100.00
60832;BME280;46665;51.558;-0.448;2023-03-19T03:01:54;100603.53;;;6.10;100.00
60832;BME280;46665;51.558;-0.448;2023-03-19T03:04:39;100613.31;;;6.11;100.00
60832;BME280;46665;51.558;-0.448;2023-03-19T03:07:24;100613.53;;;6.10;100.00
60832;BME280;46665;51.558;-0.448;2023-03-19T03:10:09;100618.13;;;6.09;100.00
60832;BME280;46665;51.558;-0.448;2023-03-19T03:12:53;100615.94;;;6.06;100.00
60832;BME280;46665;51.558;-0.448;2023-03-19T03:15:37;100621.34;;;6.06;100.00
60832;BME280;46665;51.558;-0.448;2023-03-19T03:18:22;100637.56;;;6.06;100.00
60832;BME280;46665;51.558;-0.448;2023-03-19T03:21:06;100628.38;;;6.07;100.00
60832;BME280;46665;51.558;-0.448;2023-03-19T03:23:50;100636.41;;;6.02;100.00
60832;BME280;46665;51.558;-0.448;2023-03-19T03:26:35;100628.00;;;5.98;100.00
60832;BME280;46665;51.558;-0.448;2023-03-19T03:29:21;100629.38;;;6.01;100.00
60832;BME280;46665;51.558;-0.448;2023-03-19T03:32:06;100648.59;;;6.04;100.00
60832;BME280;46665;51.558;-0.448;2023-03-19T03:34:50;100644.00;;;6.05;100.00
60832;BME280;46665;51.558;-0.448;2023-03-19T03:37:35;100653.75;;;6.06;100.00
60832;BME280;46665;51.558;-0.448;2023-03-19T03:40:20;100648.88;;;6.03;100.00
60832;BME280;46665;51.558;-0.448;2023-03-19T03:43:04;100653.50;;;6.07;100.00
60832;BME280;46665;51.558;-0.448;2023-03-19T03:45:48;100653.81;;;6.11;100.00
60832;BME280;46665;51.558;-0.448;2023-03-19T03:48:33;100657.34;;;6.12;100.00
60832;BME280;46665;51.558;-0.448;2023-03-19T03:51:17;100655.97;;;6.09;100.00
60832;BME280;46665;51.558;-0.448;2023-03-19T03:54:01;100664.06;;;6.09;100.00
60832;BME280;46665;51.558;-0.448;2023-03-19T03:56:46;100668.88;;;6.07;100.00
60832;BME280;46665;51.558;-0.448;2023-03-19T03:59:32;100667.78;;;6.03;100.00
60832;BME280;46665;51.558;-0.448;2023-03-19T04:02:16;100674.81;;;6.04;100.00
60832;BME280;46665;51.558;-0.448;2023-03-19T04:05:00;100678.81;;;6.01;100.00
60832;BME280;46665;51.558;-0.448;2023-03-19T04:07:44;100691.75;;;5.99;100.00
60832;BME280;46665;51.558;-0.448;2023-03-19T04:10:29;100687.00;;;5.90;100.00
60832;BME280;46665;51.558;-0.448;2023-03-19T04:13:14;100690.78;;;5.89;100.00
60832;BME280;46665;51.558;-0.448;2023-03-19T04:15:57;100703.03;;;5.79;100.00
60832;BME280;46665;51.558;-0.448;2023-03-19T04:18:42;100705.66;;;5.74;100.00
60832;BME280;46665;51.558;-0.448;2023-03-19T04:21:26;100715.09;;;5.72;100.00
60832;BME280;46665;51.558;-0.448;2023-03-19T04:24:11;100716.31;;;5.64;100.00
60832;BME280;46665;51.558;-0.448;2023-03-19T04:26:54;100724.91;;;5.61;100.00
60832;BME280;46665;51.558;-0.448;2023-03-19T04:29:39;100728.84;;;5.53;100.00
60832;BME280;46665;51.558;-0.448;2023-03-19T04:32:23;100738.25;;;5.51;100.00
60832;BME280;46665;51.558;-0.448;2023-03-19T04:35:07;100731.97;;;5.45;100.00
60832;BME280;46665;51.558;-0.448;2023-03-19T04:37:52;100750.03;;;5.45;100.00
60832;BME280;46665;51.558;-0.448;2023-03-19T04:40:36;100755.09;;;5.41;100.00
60832;BME280;46665;51.558;-0.448;2023-03-19T04:43:20;100746.09;;;5.35;100.00
60832;BME280;46665;51.558;-0.448;2023-03-19T04:46:05;100753.28;;;5.30;100.00
60832;BME280;46665;51.558;-0.448;2023-03-19T04:48:50;100750.00;;;5.28;100.00
60832;BME280;46665;51.558;-0.448;2023-03-19T04:51:34;100752.94;;;5.26;100.00
60832;BME280;46665;51.558;-0.448;2023-03-19T04:54:18;100753.91;;;5.20;100.00
60832;BME280;46665;51.558;-0.448;2023-03-19T04:57:03;100764.72;;;5.20;100.00
60832;BME280;46665;51.558;-0.448;2023-03-19T04:59:47;100763.22;;;5.12;100.00
60832;BME280;46665;51.558;-0.448;2023-03-19T05:02:30;100773.66;;;5.09;100.00
60832;BME280;46665;51.558;-0.448;2023-03-19T05:05:14;100767.03;;;4.99;100.00
60832;BME280;46665;51.558;-0.448;2023-03-19T05:07:58;100782.41;;;4.99;100.00
60832;BME280;46665;51.558;-0.448;2023-03-19T05:10:42;100779.03;;;4.92;100.00
60832;BME280;46665;51.558;-0.448;2023-03-19T05:13:26;100788.06;;;4.86;100.00
60832;BME280;46665;51.558;-0.448;2023-03-19T05:16:10;100780.72;;;4.81;100.00
60832;BME280;46665;51.558;-0.448;2023-03-19T05:18:55;100785.25;;;4.81;100.00
60832;BME280;46665;51.558;-0.448;2023-03-19T05:21:39;100791.25;;;4.83;100.00
60832;BME280;46665;51.558;-0.448;2023-03-19T05:24:24;100799.31;;;4.83;100.00
60832;BME280;46665;51.558;-0.448;2023-03-19T05:27:08;100797.13;;;4.80;100.00
60832;BME280;46665;51.558;-0.448;2023-03-19T05:29:52;100800.03;;;4.78;100.00
60832;BME280;46665;51.558;-0.448;2023-03-19T05:32:36;100797.81;;;4.75;100.00
60832;BME280;46665;51.558;-0.448;2023-03-19T05:35:20;100811.66;;;4.78;100.00
60832;BME280;46665;51.558;-0.448;2023-03-19T05:38:04;100817.88;;;4.79;100.00
60832;BME280;46665;51.558;-0.448;2023-03-19T05:40:48;100818.69;;;4.80;100.00
60832;BME280;46665;51.558;-0.448;2023-03-19T05:43:33;100830.88;;;4.82;100.00
60832;BME280;46665;51.558;-0.448;2023-03-19T05:46:17;100822.19;;;4.80;100.00
60832;BME280;46665;51.558;-0.448;2023-03-19T05:49:01;100824.06;;;4.80;100.00
60832;BME280;46665;51.558;-0.448;2023-03-19T05:51:45;100819.75;;;4.78;100.00
60832;BME280;46665;51.558;-0.448;2023-03-19T05:54:29;100843.44;;;4.76;100.00
60832;BME280;46665;51.558;-0.448;2023-03-19T05:57:13;100839.56;;;4.72;100.00
60832;BME280;46665;51.558;-0.448;2023-03-19T05:59:57;100833.25;;;4.67;100.00
60832;BME280;46665;51.558;-0.448;2023-03-19T06:02:41;100844.25;;;4.65;100.00
60832;BME280;46665;51.558;-0.448;2023-03-19T06:05:26;100846.03;;;4.60;100.00
60832;BME280;46665;51.558;-0.448;2023-03-19T06:08:10;100845.91;;;4.54;100.00
60832;BME280;46665;51.558;-0.448;2023-03-19T06:10:54;100842.88;;;4.51;100.00
60832;BME280;46665;51.558;-0.448;2023-03-19T06:13:38;100847.91;;;4.47;100.00
60832;BME280;46665;51.558;-0.448;2023-03-19T06:16:23;100851.88;;;4.45;100.00
60832;BME280;46665;51.558;-0.448;2023-03-19T06:19:07;100844.75;;;4.39;100.00
60832;BME280;46665;51.558;-0.448;2023-03-19T06:21:51;100847.09;;;4.35;100.00
60832;BME280;46665;51.558;-0.448;2023-03-19T06:24:35;100860.44;;;4.30;100.00
60832;BME280;46665;51.558;-0.448;2023-03-19T06:27:19;100865.25;;;4.28;100.00
60832;BME280;46665;51.558;-0.448;2023-03-19T06:30:04;100868.19;;;4.26;100.00
60832;BME280;46665;51.558;-0.448;2023-03-19T06:32:48;100875.09;;;4.22;100.00
60832;BME280;46665;51.558;-0.448;2023-03-19T06:35:32;100875.09;;;4.22;100.00
60832;BME280;46665;51.558;-0.448;2023-03-19T06:38:16;100878.25;;;4.19;100.00
60832;BME280;46665;51.558;-0.448;2023-03-19T06:41:00;100882.44;;;4.15;100.00
60832;BME280;46665;51.558;-0.448;2023-03-19T06:43:44;100877.91;;;4.16;100.00
60832;BME280;46665;51.558;-0.448;2023-03-19T06:46:29;100894.63;;;4.18;100.00
60832;BME280;46665;51.558;-0.448;2023-03-19T06:49:13;100900.59;;;4.20;100.00
60832;BME280;46665;51.558;-0.448;2023-03-19T06:51:58;100907.66;;;4.21;100.00
60832;BME280;46665;51.558;-0.448;2023-03-19T06:54:42;100917.38;;;4.22;100.00
60832;BME280;46665;51.558;-0.448;2023-03-19T06:57:26;100915.25;;;4.24;100.00
60832;BME280;46665;51.558;-0.448;2023-03-19T07:00:11;100918.78;;;4.24;100.00
60832;BME280;46665;51.558;-0.448;2023-03-19T07:02:55;100915.84;;;4.26;100.00
60832;BME280;46665;51.558;-0.448;2023-03-19T07:05:39;100923.81;;;4.32;100.00
60832;BME280;46665;51.558;-0.448;2023-03-19T07:08:23;100921.50;;;4.36;100.00
60832;BME280;46665;51.558;-0.448;2023-03-19T07:11:12;100923.13;;;4.37;100.00
60832;BME280;46665;51.558;-0.448;2023-03-19T07:13:57;100926.63;;;4.38;100.00
60832;BME280;46665;51.558;-0.448;2023-03-19T07:16:41;100931.31;;;4.42;100.00
60832;BME280;46665;51.558;-0.448;2023-03-19T07:19:25;100935.91;;;4.42;100.00
60832;BME280;46665;51.558;-0.448;2023-03-19T07:22:11;100934.28;;;4.41;100.00
60832;BME280;46665;51.558;-0.448;2023-03-19T07:24:55;100946.22;;;4.45;100.00
60832;BME280;46665;51.558;-0.448;2023-03-19T07:27:39;100949.84;;;4.50;100.00
60832;BME280;46665;51.558;-0.448;2023-03-19T07:30:23;100952.91;;;4.54;100.00
60832;BME280;46665;51.558;-0.448;2023-03-19T07:33:07;100957.34;;;4.60;100.00
60832;BME280;46665;51.558;-0.448;2023-03-19T07:35:51;100967.66;;;4.63;100.00
60832;BME280;46665;51.558;-0.448;2023-03-19T07:38:35;100978.94;;;4.72;100.00
60832;BME280;46665;51.558;-0.448;2023-03-19T07:41:19;100976.94;;;4.79;100.00
60832;BME280;46665;51.558;-0.448;2023-03-19T07:44:03;100974.47;;;4.89;100.00
60832;BME280;46665;51.558;-0.448;2023-03-19T07:46:47;100975.19;;;4.96;100.00
60832;BME280;46665;51.558;-0.448;2023-03-19T07:49:31;100984.06;;;5.09;100.00
60832;BME280;46665;51.558;-0.448;2023-03-19T07:52:15;100986.63;;;5.15;100.00
60832;BME280;46665;51.558;-0.448;2023-03-19T07:55:02;100980.28;;;5.21;100.00
60832;BME280;46665;51.558;-0.448;2023-03-19T07:57:46;100994.25;;;5.30;100.00
60832;BME280;46665;51.558;-0.448;2023-03-19T08:00:30;100987.06;;;5.36;100.00
60832;BME280;46665;51.558;-0.448;2023-03-19T08:03:14;100995.75;;;5.50;100.00
60832;BME280;46665;51.558;-0.448;2023-03-19T08:05:59;100982.91;;;5.57;100.00
60832;BME280;46665;51.558;-0.448;2023-03-19T08:08:43;100995.78;;;5.67;100.00
60832;BME280;46665;51.558;-0.448;2023-03-19T08:11:27;100995.44;;;5.75;100.00
60832;BME280;46665;51.558;-0.448;2023-03-19T08:14:12;100994.78;;;5.84;100.00
60832;BME280;46665;51.558;-0.448;2023-03-19T08:16:57;100994.34;;;5.88;100.00
60832;BME280;46665;51.558;-0.448;2023-03-19T08:19:42;101000.88;;;5.92;100.00
60832;BME280;46665;51.558;-0.448;2023-03-19T08:22:26;100998.78;;;5.94;100.00
60832;BME280;46665;51.558;-0.448;2023-03-19T08:25:10;101007.56;;;6.01;100.00
60832;BME280;46665;51.558;-0.448;2023-03-19T08:27:54;101011.41;;;6.05;100.00
60832;BME280;46665;51.558;-0.448;2023-03-19T08:30:39;101024.47;;;6.08;100.00
60832;BME280;46665;51.558;-0.448;2023-03-19T08:33:23;101019.88;;;6.08;100.00
60832;BME280;46665;51.558;-0.448;2023-03-19T08:36:09;101024.69;;;6.06;100.00
60832;BME280;46665;51.558;-0.448;2023-03-19T08:38:54;101029.28;;;6.06;100.00
60832;BME280;46665;51.558;-0.448;2023-03-19T08:41:38;101036.66;;;6.11;100.00
60832;BME280;46665;51.558;-0.448;2023-03-19T08:44:22;101045.59;;;6.11;100.00
60832;BME280;46665;51.558;-0.448;2023-03-19T08:47:06;101035.09;;;6.15;100.00
60832;BME280;46665;51.558;-0.448;2023-03-19T08:49:51;101042.16;;;6.16;100.00
60832;BME280;46665;51.558;-0.448;2023-03-19T08:52:35;101057.88;;;6.19;100.00
60832;BME280;46665;51.558;-0.448;2023-03-19T08:55:19;101051.41;;;6.20;100.00
60832;BME280;46665;51.558;-0.448;2023-03-19T08:58:03;101051.75;;;6.23;100.00
60832;BME280;46665;51.558;-0.448;2023-03-19T09:00:47;101058.50;;;6.38;100.00
60832;BME280;46665;51.558;-0.448;2023-03-19T09:03:32;101057.03;;;6.47;100.00
60832;BME280;46665;51.558;-0.448;2023-03-19T09:06:16;101061.63;;;6.63;100.00
60832;BME280;46665;51.558;-0.448;2023-03-19T09:09:01;101063.53;;;6.80;100.00
60832;BME280;46665;51.558;-0.448;2023-03-19T09:11:45;101047.78;;;6.93;100.00
60832;BME280;46665;51.558;-0.448;2023-03-19T09:14:29;101067.81;;;7.09;100.00
60832;BME280;46665;51.558;-0.448;2023-03-19T09:17:14;101065.03;;;7.04;99.96
60832;BME280;46665;51.558;-0.448;2023-03-19T09:19:58;101075.44;;;7.12;100.00
60832;BME280;46665;51.558;-0.448;2023-03-19T09:22:42;101084.13;;;7.14;100.00
60832;BME280;46665;51.558;-0.448;2023-03-19T09:25:27;101082.06;;;7.22;100.00
60832;BME280;46665;51.558;-0.448;2023-03-19T09:28:11;101071.63;;;7.30;100.00
60832;BME280;46665;51.558;-0.448;2023-03-19T09:30:55;101078.59;;;7.26;97.56
60832;BME280;46665;51.558;-0.448;2023-03-19T09:33:39;101084.28;;;7.25;95.99
60832;BME280;46665;51.558;-0.448;2023-03-19T09:36:24;101085.91;;;7.26;95.44
60832;BME280;46665;51.558;-0.448;2023-03-19T09:39:08;101082.06;;;7.22;94.59
60832;BME280;46665;51.558;-0.448;2023-03-19T09:44:55;101098.03;;;7.40;95.52
60832;BME280;46665;51.558;-0.448;2023-03-19T09:47:39;101103.09;;;7.53;95.98
60832;BME280;46665;51.558;-0.448;2023-03-19T09:50:26;101106.31;;;7.50;94.27
60832;BME280;46665;51.558;-0.448;2023-03-19T09:56:35;101109.19;;;7.44;96.46
60832;BME280;46665;51.558;-0.448;2023-03-19T09:59:21;101113.78;;;7.43;94.47
60832;BME280;46665;51.558;-0.448;2023-03-19T10:05:21;101110.75;;;7.40;95.87
60832;BME280;46665;51.558;-0.448;2023-03-19T10:08:21;101117.63;;;7.47;96.54
60832;BME280;46665;51.558;-0.448;2023-03-19T10:17:29;101158.25;;;7.47;97.49
60832;BME280;46665;51.558;-0.448;2023-03-19T10:23:27;101154.63;;;7.42;97.33
60832;BME280;46665;51.558;-0.448;2023-03-19T10:26:19;101155.63;;;7.35;97.59
60832;BME280;46665;51.558;-0.448;2023-03-19T10:29:09;101142.81;;;7.31;98.27
60832;BME280;46665;51.558;-0.448;2023-03-19T10:34:52;101155.28;;;7.49;98.05
60832;BME280;46665;51.558;-0.448;2023-03-19T10:37:36;101139.31;;;7.47;98.73
60832;BME280;46665;51.558;-0.448;2023-03-19T10:40:38;101148.63;;;7.56;98.51
60832;BME280;46665;51.558;-0.448;2023-03-19T10:43:28;101150.75;;;7.71;97.97
60832;BME280;46665;51.558;-0.448;2023-03-19T10:46:13;101157.03;;;7.77;95.50
60832;BME280;46665;51.558;-0.448;2023-03-19T10:48:58;101150.06;;;7.81;95.86
60832;BME280;46665;51.558;-0.448;2023-03-19T10:51:44;101159.28;;;7.80;94.07
60832;BME280;46665;51.558;-0.448;2023-03-19T10:54:29;101158.56;;;7.90;94.94
60832;BME280;46665;51.558;-0.448;2023-03-19T10:57:24;101147.59;;;7.79;94.40
60832;BME280;46665;51.558;-0.448;2023-03-19T11:00:22;101160.28;;;7.96;94.51
60832;BME280;46665;51.558;-0.448;2023-03-19T11:06:20;101157.31;;;8.19;93.70
60832;BME280;46665;51.558;-0.448;2023-03-19T11:11:56;101146.88;;;8.28;90.99
60832;BME280;46665;51.558;-0.448;2023-03-19T11:14:41;101156.44;;;8.36;92.19
60832;BME280;46665;51.558;-0.448;2023-03-19T11:17:47;101153.22;;;8.39;91.86
60832;BME280;46665;51.558;-0.448;2023-03-19T11:20:35;101147.06;;;8.43;90.02
60832;BME280;46665;51.558;-0.448;2023-03-19T11:23:19;101140.94;;;8.31;88.40
60832;BME280;46665;51.558;-0.448;2023-03-19T11:26:03;101149.47;;;8.40;86.20
60832;BME280;46665;51.558;-0.448;2023-03-19T11:28:50;101151.66;;;8.43;84.23
60832;BME280;46665;51.558;-0.448;2023-03-19T11:31:58;101151.84;;;8.58;86.05
60832;BME280;46665;51.558;-0.448;2023-03-19T11:41:01;101164.72;;;8.73;81.06
60832;BME280;46665;51.558;-0.448;2023-03-19T11:44:04;101169.41;;;8.78;81.67
60832;BME280;46665;51.558;-0.448;2023-03-19T11:53:17;101176.88;;;8.93;80.60
60832;BME280;46665;51.558;-0.448;2023-03-19T12:08:22;101182.16;;;9.42;78.07
60832;BME280;46665;51.558;-0.448;2023-03-19T12:11:30;101184.56;;;9.33;77.32
60832;BME280;46665;51.558;-0.448;2023-03-19T12:17:28;101196.63;;;9.15;77.83
60832;BME280;46665;51.558;-0.448;2023-03-19T12:34:55;101186.97;;;9.29;82.06
60832;BME280;46665;51.558;-0.448;2023-03-19T12:37:58;101188.16;;;9.06;78.32
60832;BME280;46665;51.558;-0.448;2023-03-19T12:41:15;101192.91;;;8.94;79.54
60832;BME280;46665;51.558;-0.448;2023-03-19T12:44:23;101192.38;;;8.97;79.54
60832;BME280;46665;51.558;-0.448;2023-03-19T12:47:24;101200.25;;;8.99;80.14
60832;BME280;46665;51.558;-0.448;2023-03-19T12:50:13;101192.16;;;9.04;79.16
60832;BME280;46665;51.558;-0.448;2023-03-19T12:52:59;101196.78;;;9.03;78.35
60832;BME280;46665;51.558;-0.448;2023-03-19T12:55:49;101198.13;;;9.01;79.31
60832;BME280;46665;51.558;-0.448;2023-03-19T13:01:32;101199.66;;;8.92;78.95
60832;BME280;46665;51.558;-0.448;2023-03-19T13:04:21;101189.41;;;8.99;80.78
60832;BME280;46665;51.558;-0.448;2023-03-19T13:07:12;101192.25;;;9.09;81.39
60832;BME280;46665;51.558;-0.448;2023-03-19T13:10:07;101196.91;;;9.19;79.67
60832;BME280;46665;51.558;-0.448;2023-03-19T13:12:52;101189.69;;;9.29;79.70
60832;BME280;46665;51.558;-0.448;2023-03-19T13:15:43;101190.28;;;9.37;78.94
60832;BME280;46665;51.558;-0.448;2023-03-19T13:18:46;101184.91;;;9.47;79.00
60832;BME280;46665;51.558;-0.448;2023-03-19T13:21:35;101187.19;;;9.55;78.81
60832;BME280;46665;51.558;-0.448;2023-03-19T13:24:24;101192.69;;;9.65;78.31
60832;BME280;46665;51.558;-0.448;2023-03-19T13:27:21;101181.53;;;9.67;76.81
60832;BME280;46665;51.558;-0.448;2023-03-19T13:33:03;101185.69;;;9.80;76.37
60832;BME280;46665;51.558;-0.448;2023-03-19T13:35:49;101180.06;;;9.91;75.98
60832;BME280;46665;51.558;-0.448;2023-03-19T13:38:43;101180.38;;;10.00;77.77
60832;BME280;46665;51.558;-0.448;2023-03-19T13:50:22;101178.03;;;9.71;75.26
60832;BME280;46665;51.558;-0.448;2023-03-19T13:53:20;101191.09;;;9.74;75.66
60832;BME280;46665;51.558;-0.448;2023-03-19T13:56:10;101174.00;;;9.79;75.44
60832;BME280;46665;51.558;-0.448;2023-03-19T14:02:01;101179.22;;;9.86;75.35
60832;BME280;46665;51.558;-0.448;2023-03-19T14:05:03;101193.63;;;9.86;73.99
60832;BME280;46665;51.558;-0.448;2023-03-19T14:07:52;101185.94;;;9.73;74.15
60832;BME280;46665;51.558;-0.448;2023-03-19T14:10:46;101182.91;;;9.69;74.86
60832;BME280;46665;51.558;-0.448;2023-03-19T14:13:42;101198.22;;;9.81;76.18
60832;BME280;46665;51.558;-0.448;2023-03-19T14:16:34;101194.97;;;9.84;76.01
60832;BME280;46665;51.558;-0.448;2023-03-19T14:19:19;101193.31;;;9.77;75.97
60832;BME280;46665;51.558;-0.448;2023-03-19T14:22:16;101200.91;;;9.75;76.10
60832;BME280;46665;51.558;-0.448;2023-03-19T14:25:17;101191.06;;;9.69;76.23
60832;BME280;46665;51.558;-0.448;2023-03-19T14:28:08;101205.69;;;9.63;76.40
60832;BME280;46665;51.558;-0.448;2023-03-19T14:30:55;101207.78;;;9.51;76.67
60832;BME280;46665;51.558;-0.448;2023-03-19T14:36:40;101210.28;;;9.58;78.29
60832;BME280;46665;51.558;-0.448;2023-03-19T14:39:27;101211.47;;;9.72;78.48
60832;BME280;46665;51.558;-0.448;2023-03-19T14:48:11;101208.41;;;10.01;71.65
60832;BME280;46665;51.558;-0.448;2023-03-19T14:53:53;101220.28;;;9.89;70.64
60832;BME280;46665;51.558;-0.448;2023-03-19T14:56:39;101219.94;;;9.75;71.90
60832;BME280;46665;51.558;-0.448;2023-03-19T14:59:23;101228.84;;;9.71;74.09
60832;BME280;46665;51.558;-0.448;2023-03-19T15:02:40;101223.31;;;9.55;75.46
60832;BME280;46665;51.558;-0.448;2023-03-19T15:05:31;101237.47;;;9.58;77.05
60832;BME280;46665;51.558;-0.448;2023-03-19T15:08:19;101223.50;;;9.49;77.38
60832;BME280;46665;51.558;-0.448;2023-03-19T15:19:41;101226.34;;;9.64;76.89
60832;BME280;46665;51.558;-0.448;2023-03-19T15:22:28;101230.47;;;9.72;76.68
60832;BME280;46665;51.558;-0.448;2023-03-19T15:25:14;101241.38;;;9.77;75.59
60832;BME280;46665;51.558;-0.448;2023-03-19T15:30:58;101225.06;;;9.77;75.58
60832;BME280;46665;51.558;-0.448;2023-03-19T15:33:44;101221.31;;;9.78;76.16
60832;BME280;46665;51.558;-0.448;2023-03-19T15:36:30;101223.75;;;9.80;75.51
60832;BME280;46665;51.558;-0.448;2023-03-19T15:39:18;101213.47;;;9.87;72.03
60832;BME280;46665;51.558;-0.448;2023-03-19T15:42:03;101219.47;;;9.89;71.67
60832;BME280;46665;51.558;-0.448;2023-03-19T15:44:54;101221.63;;;9.87;70.74
60832;BME280;46665;51.558;-0.448;2023-03-19T15:47:45;101216.75;;;9.89;72.04
60832;BME280;46665;51.558;-0.448;2023-03-19T15:50:35;101206.13;;;9.87;72.37
60832;BME280;46665;51.558;-0.448;2023-03-19T15:53:23;101221.56;;;9.76;71.74
60832;BME280;46665;51.558;-0.448;2023-03-19T15:56:08;101218.22;;;9.69;70.68
60832;BME280;46665;51.558;-0.448;2023-03-19T15:58:55;101221.47;;;9.66;69.39
60832;BME280;46665;51.558;-0.448;2023-03-19T16:01:39;101222.00;;;9.63;71.44
60832;BME280;46665;51.558;-0.448;2023-03-19T16:04:24;101221.97;;;9.58;70.50
60832;BME280;46665;51.558;-0.448;2023-03-19T16:07:44;101219.47;;;9.51;69.34
60832;BME280;46665;51.558;-0.448;2023-03-19T16:13:24;101220.91;;;9.64;70.56
60832;BME280;46665;51.558;-0.448;2023-03-19T16:18:55;101220.09;;;9.64;71.48
60832;BME280;46665;51.558;-0.448;2023-03-19T16:21:40;101221.16;;;9.58;72.92
60832;BME280;46665;51.558;-0.448;2023-03-19T16:24:43;101221.97;;;9.58;73.70
60832;BME280;46665;51.558;-0.448;2023-03-19T16:27:37;101229.00;;;9.54;73.50
60832;BME280;46665;51.558;-0.448;2023-03-19T16:30:24;101236.06;;;9.55;72.54